Time;durP1;ratioP1;P1;durP2;ratioP2;P2;SDS_P1;SDS_P2;PMS_P1;PMS_P2;Temp;Humidity;BMP_temperature;BMP_pressure;BME280_temperature;BME280_humidity;BME280_pressure;Samples;Min_cycle;Max_cycle;Signal;HPM_P1;HPM_P2
2023/10/27 00:01:09;;;;;;;2.08;1.55;;;17.90;99.90;;;;;;4916211;29;20043;-77
2023/10/27 00:03:35;;;;;;;2.10;1.60;;;17.90;99.90;;;;;;4925903;29;20040;-76
2023/10/27 00:06:00;;;;;;;2.22;1.75;;;17.90;99.90;;;;;;4913148;29;20040;-77
2023/10/27 00:08:26;;;;;;;2.03;1.63;;;17.90;99.90;;;;;;4915732;29;20035;-77
2023/10/27 00:10:53;;;;;;;1.40;1.30;;;17.90;99.90;;;;;;4929167;29;20106;-77
2023/10/27 00:13:19;;;;;;;1.42;1.30;;;17.90;99.90;;;;;;4928621;29;20111;-76
2023/10/27 00:15:45;;;;;;;2.38;1.58;;;17.90;99.90;;;;;;4922557;29;20449;-76
2023/10/27 00:18:12;;;;;;;1.40;1.10;;;17.90;99.90;;;;;;4916269;29;20120;-76
2023/10/27 00:20:38;;;;;;;1.65;1.50;;;17.90;99.90;;;;;;4916615;29;20040;-76
2023/10/27 00:23:04;;;;;;;2.25;1.58;;;17.80;99.90;;;;;;4914038;29;20047;-79
2023/10/27 00:25:29;;;;;;;3.17;1.55;;;17.80;99.90;;;;;;4900254;29;20024;-78
2023/10/27 00:27:55;;;;;;;2.22;1.70;;;17.80;99.90;;;;;;4921787;29;20036;-79
2023/10/27 00:30:21;;;;;;;1.65;1.55;;;17.80;99.90;;;;;;4911784;29;20032;-80
2023/10/27 00:32:47;;;;;;;1.88;1.48;;;17.80;99.90;;;;;;4903261;29;20037;-80
2023/10/27 00:35:12;;;;;;;1.90;1.70;;;17.80;99.90;;;;;;4919991;29;20448;-79
2023/10/27 00:37:40;;;;;;;1.50;1.40;;;17.80;99.90;;;;;;4904774;29;20055;-79
2023/10/27 00:40:07;;;;;;;2.17;1.55;;;17.80;99.90;;;;;;4917363;29;20032;-80
2023/10/27 00:42:33;;;;;;;3.05;1.45;;;17.80;99.90;;;;;;4911553;29;20042;-79
2023/10/27 00:44:59;;;;;;;2.00;1.50;;;17.90;99.90;;;;;;4929482;29;20078;-79
2023/10/27 00:47:26;;;;;;;1.95;1.70;;;17.90;99.90;;;;;;4929945;29;20420;-79
2023/10/27 00:49:54;;;;;;;1.40;1.20;;;17.80;99.90;;;;;;4917629;29;20083;-79
2023/10/27 00:52:22;;;;;;;1.45;1.23;;;17.80;99.90;;;;;;4922375;29;20152;-80
2023/10/27 00:54:49;;;;;;;1.42;1.23;;;17.80;99.90;;;;;;4926686;29;20063;-79
2023/10/27 00:57:16;;;;;;;1.73;0.98;;;17.80;99.90;;;;;;4918551;29;20032;-79
2023/10/27 00:59:42;;;;;;;1.73;1.10;;;17.80;99.90;;;;;;4927205;29;20408;-79
2023/10/27 01:02:09;;;;;;;1.20;1.00;;;17.80;99.90;;;;;;4916579;29;20035;-79
2023/10/27 01:04:35;;;;;;;1.77;1.30;;;17.80;99.90;;;;;;4916069;29;20087;-85
2023/10/27 01:07:01;;;;;;;1.83;1.10;;;17.80;99.90;;;;;;4918897;29;20039;-85
2023/10/27 01:09:27;;;;;;;1.30;1.10;;;17.80;99.90;;;;;;4920039;29;20036;-86
2023/10/27 01:11:54;;;;;;;1.60;1.08;;;17.80;99.90;;;;;;4919864;29;20055;-85
2023/10/27 01:14:19;;;;;;;1.30;1.20;;;17.90;99.90;;;;;;4917426;29;20048;-79
2023/10/27 01:16:45;;;;;;;1.00;0.90;;;17.80;99.90;;;;;;4915499;29;20044;-79
2023/10/27 01:19:12;;;;;;;1.30;0.98;;;17.90;99.90;;;;;;4919721;29;20158;-79
2023/10/27 01:21:37;;;;;;;1.20;1.10;;;17.90;99.90;;;;;;4917657;29;20155;-79
2023/10/27 01:24:04;;;;;;;5.78;1.08;;;17.80;99.90;;;;;;4913122;29;20032;-79
2023/10/27 01:26:30;;;;;;;1.20;1.10;;;17.80;99.90;;;;;;4918148;29;20028;-78
2023/10/27 01:28:56;;;;;;;1.23;1.13;;;17.90;99.90;;;;;;4900871;29;20036;-79
2023/10/27 01:31:22;;;;;;;1.30;1.20;;;17.80;99.90;;;;;;4919895;29;20036;-79
2023/10/27 01:33:48;;;;;;;1.38;1.00;;;17.80;99.90;;;;;;4920156;29;20047;-85
2023/10/27 01:36:14;;;;;;;1.52;1.27;;;17.80;99.90;;;;;;4927279;29;20389;-86
2023/10/27 01:38:39;;;;;;;1.52;1.20;;;17.80;99.90;;;;;;4914252;29;20175;-85
2023/10/27 01:41:05;;;;;;;2.08;1.50;;;17.70;99.90;;;;;;4916471;29;20123;-79
2023/10/27 01:43:31;;;;;;;1.35;1.23;;;17.70;99.90;;;;;;4914298;29;20429;-80
2023/10/27 01:45:56;;;;;;;1.50;1.20;;;17.60;99.90;;;;;;4902515;29;20051;-79
2023/10/27 01:48:22;;;;;;;2.10;1.48;;;17.60;99.90;;;;;;4931633;29;20024;-85
2023/10/27 01:50:48;;;;;;;1.38;1.27;;;17.50;99.90;;;;;;4911872;29;20035;-85
2023/10/27 01:53:14;;;;;;;1.83;1.65;;;17.50;99.90;;;;;;4920278;29;20040;-85
2023/10/27 01:55:40;;;;;;;2.75;2.17;;;17.50;99.90;;;;;;4914540;29;20032;-80
2023/10/27 01:58:06;;;;;;;4.05;1.70;;;17.50;99.90;;;;;;4920756;29;20039;-79
2023/10/27 02:00:31;;;;;;;2.55;1.73;;;17.50;99.90;;;;;;4921652;29;20043;-77
2023/10/27 02:02:57;;;;;;;2.60;1.38;;;17.50;99.90;;;;;;4927971;29;20336;-79
2023/10/27 02:05:23;;;;;;;1.50;1.10;;;17.50;99.90;;;;;;4932375;29;20436;-85
2023/10/27 02:07:48;;;;;;;1.85;1.15;;;17.50;99.90;;;;;;4918005;29;20031;-86
2023/10/27 02:10:14;;;;;;;2.05;1.85;;;17.60;99.90;;;;;;4926770;29;20115;-86
2023/10/27 02:12:40;;;;;;;2.47;1.45;;;17.60;99.90;;;;;;4925019;29;20546;-85
2023/10/27 02:15:06;;;;;;;1.73;1.63;;;17.60;99.90;;;;;;4930477;29;20087;-85
2023/10/27 02:17:32;;;;;;;1.20;1.10;;;17.60;99.90;;;;;;4917141;29;20031;-85
2023/10/27 02:19:58;;;;;;;2.15;1.50;;;17.60;99.90;;;;;;4903847;29;20035;-85
2023/10/27 02:22:24;;;;;;;1.55;1.20;;;17.70;99.90;;;;;;4918242;29;20028;-79
2023/10/27 02:24:50;;;;;;;1.90;1.70;;;17.70;99.90;;;;;;4915859;29;20044;-79
2023/10/27 02:27:16;;;;;;;1.58;1.48;;;17.70;99.90;;;;;;4927396;29;20032;-80
2023/10/27 02:29:42;;;;;;;1.75;1.42;;;17.70;99.90;;;;;;4924404;29;20078;-79
2023/10/27 02:32:07;;;;;;;2.55;1.70;;;17.70;99.90;;;;;;4934062;29;20035;-80
2023/10/27 02:34:33;;;;;;;1.77;1.67;;;17.70;99.90;;;;;;4924344;29;20067;-80
2023/10/27 02:36:59;;;;;;;2.25;1.77;;;17.70;99.90;;;;;;4920815;29;20037;-80
2023/10/27 02:39:24;;;;;;;2.25;1.92;;;17.70;99.90;;;;;;4921732;29;20505;-85
2023/10/27 02:41:50;;;;;;;1.52;1.42;;;17.70;99.90;;;;;;4924763;29;20028;-84
2023/10/27 02:44:15;;;;;;;2.10;1.83;;;17.70;99.90;;;;;;4933074;29;20047;-85
2023/10/27 02:46:41;;;;;;;2.03;1.80;;;17.70;99.90;;;;;;4921867;29;20059;-85
2023/10/27 02:49:07;;;;;;;1.70;1.60;;;17.70;99.90;;;;;;4917126;29;20036;-85
2023/10/27 02:51:33;;;;;;;1.60;1.50;;;17.80;99.90;;;;;;4923043;29;20032;-85
2023/10/27 02:53:59;;;;;;;1.65;1.52;;;17.70;99.90;;;;;;4924748;29;20483;-84
2023/10/27 02:56:24;;;;;;;2.17;1.85;;;17.80;99.90;;;;;;4934814;29;20104;-85
2023/10/27 02:58:51;;;;;;;1.58;1.48;;;17.70;99.90;;;;;;4918629;29;20124;-84
2023/10/27 03:01:16;;;;;;;2.10;1.90;;;17.70;99.90;;;;;;4921850;29;20032;-85
2023/10/27 03:03:44;;;;;;;2.25;1.95;;;17.70;99.90;;;;;;4917606;29;20040;-84
2023/10/27 03:06:10;;;;;;;2.33;2.10;;;17.70;99.90;;;;;;4918267;29;20108;-84
2023/10/27 03:08:41;;;;;;;2.47;2.00;;;17.70;99.90;;;;;;4917235;29;20044;-86
2023/10/27 03:11:08;;;;;;;3.78;2.17;;;17.70;99.90;;;;;;4917574;29;20028;-85
2023/10/27 03:13:34;;;;;;;2.60;2.25;;;17.70;99.90;;;;;;4918139;29;20032;-85
2023/10/27 03:16:03;;;;;;;2.70;2.30;;;17.70;99.90;;;;;;4914420;29;20103;-80
2023/10/27 03:18:28;;;;;;;2.75;1.88;;;17.70;99.90;;;;;;4917429;29;20036;-80
2023/10/27 03:20:55;;;;;;;2.97;2.20;;;17.70;99.90;;;;;;4917952;29;20079;-80
2023/10/27 03:23:25;;;;;;;2.53;2.33;;;17.70;99.90;;;;;;4917623;29;20061;-80
2023/10/27 03:25:51;;;;;;;2.28;2.08;;;17.70;99.90;;;;;;4917607;29;20032;-80
2023/10/27 03:28:16;;;;;;;2.22;2.00;;;17.70;99.90;;;;;;4917472;29;20036;-80
2023/10/27 03:30:44;;;;;;;2.00;1.85;;;17.70;99.90;;;;;;4916718;29;20035;-79
2023/10/27 03:33:09;;;;;;;2.88;1.88;;;17.70;99.90;;;;;;4917656;29;20028;-80
2023/10/27 03:35:37;;;;;;;1.92;1.73;;;17.70;99.90;;;;;;4911978;29;20081;-80
2023/10/27 03:38:06;;;;;;;2.92;1.60;;;17.70;99.90;;;;;;4926190;29;20477;-81
2023/10/27 03:40:32;;;;;;;2.03;1.60;;;17.70;99.90;;;;;;4918994;29;20028;-84
2023/10/27 03:42:57;;;;;;;1.70;1.60;;;17.70;99.90;;;;;;4931115;29;20457;-84
2023/10/27 03:45:23;;;;;;;1.75;1.63;;;17.60;99.90;;;;;;4916901;29;20035;-85
2023/10/27 03:47:49;;;;;;;2.35;1.63;;;17.70;99.90;;;;;;4917398;29;20036;-84
2023/10/27 03:50:15;;;;;;;3.53;2.47;;;17.60;99.90;;;;;;4920751;29;20122;-84
2023/10/27 03:52:40;;;;;;;2.92;1.90;;;17.60;99.90;;;;;;4904554;29;20036;-84
2023/10/27 03:55:07;;;;;;;2.33;1.90;;;17.50;99.90;;;;;;4927114;29;20518;-84
2023/10/27 03:57:36;;;;;;;2.15;1.95;;;17.50;99.90;;;;;;4930274;29;20413;-84
2023/10/27 04:00:04;;;;;;;1.95;1.75;;;17.50;99.90;;;;;;4906387;29;20038;-83
2023/10/27 04:02:31;;;;;;;2.97;2.15;;;17.50;99.90;;;;;;4909896;29;20332;-84
2023/10/27 04:04:56;;;;;;;2.55;2.25;;;17.60;99.90;;;;;;4919735;29;20027;-84
2023/10/27 04:07:22;;;;;;;2.03;1.83;;;17.50;99.90;;;;;;4916087;29;20036;-84
2023/10/27 04:09:48;;;;;;;2.30;2.10;;;17.50;99.90;;;;;;4920348;29;20028;-85
2023/10/27 04:12:14;;;;;;;2.03;1.83;;;17.50;99.90;;;;;;4918390;29;20036;-86
2023/10/27 04:14:40;;;;;;;2.60;1.85;;;17.50;99.90;;;;;;4920166;29;20024;-85
2023/10/27 04:17:05;;;;;;;1.75;1.65;;;17.50;99.90;;;;;;4925747;29;20433;-85
2023/10/27 04:19:31;;;;;;;2.45;1.88;;;17.40;99.90;;;;;;4917513;29;20052;-85
2023/10/27 04:21:57;;;;;;;3.13;2.00;;;17.40;99.90;;;;;;4921109;29;20042;-84
2023/10/27 04:24:22;;;;;;;1.65;1.55;;;17.50;99.90;;;;;;4929468;29;20023;-80
2023/10/27 04:26:48;;;;;;;2.70;1.60;;;17.50;99.90;;;;;;4909070;29;20096;-79
2023/10/27 04:29:14;;;;;;;2.40;1.95;;;17.50;99.90;;;;;;4916303;29;20396;-79
2023/10/27 04:31:39;;;;;;;1.92;1.63;;;17.50;99.90;;;;;;4918033;29;20477;-79
2023/10/27 04:34:05;;;;;;;2.42;1.50;;;17.60;99.90;;;;;;4912463;29;20107;-85
2023/10/27 04:36:30;;;;;;;1.40;1.30;;;17.60;99.90;;;;;;4926624;29;20048;-85
2023/10/27 04:38:56;;;;;;;1.42;1.33;;;17.60;99.90;;;;;;4920478;29;20532;-85
2023/10/27 04:41:22;;;;;;;1.70;1.60;;;17.60;99.90;;;;;;4902411;29;20036;-84
2023/10/27 04:43:50;;;;;;;1.58;1.48;;;17.60;99.90;;;;;;4920289;29;20491;-81
2023/10/27 04:46:16;;;;;;;1.58;1.48;;;17.60;99.90;;;;;;4922098;29;20036;-80
2023/10/27 04:48:41;;;;;;;1.77;1.63;;;17.50;99.90;;;;;;4915911;29;20032;-80
2023/10/27 04:51:07;;;;;;;2.03;1.77;;;17.50;99.90;;;;;;4922128;29;20111;-80
2023/10/27 04:53:33;;;;;;;2.28;1.67;;;17.50;99.90;;;;;;4922812;29;20180;-80
2023/10/27 04:55:58;;;;;;;2.53;1.90;;;17.50;99.90;;;;;;4922760;29;20036;-86
2023/10/27 04:58:24;;;;;;;1.92;1.75;;;17.50;99.90;;;;;;4922187;29;20034;-86
2023/10/27 05:00:50;;;;;;;2.58;1.77;;;17.50;99.90;;;;;;4919369;29;20036;-85
2023/10/27 05:03:16;;;;;;;1.40;1.30;;;17.50;99.90;;;;;;4905848;29;20413;-85
2023/10/27 05:05:42;;;;;;;2.15;1.70;;;17.60;99.90;;;;;;4915569;29;20033;-85
2023/10/27 05:08:08;;;;;;;2.08;1.88;;;17.60;99.90;;;;;;4916692;29;20043;-85
2023/10/27 05:10:34;;;;;;;1.42;1.33;;;17.60;99.90;;;;;;4913126;29;20040;-85
2023/10/27 05:12:59;;;;;;;1.85;1.75;;;17.60;99.90;;;;;;4914668;29;20496;-86
2023/10/27 05:15:25;;;;;;;2.42;1.60;;;17.60;99.90;;;;;;4905705;29;20067;-85
2023/10/27 05:17:51;;;;;;;1.60;1.40;;;17.60;99.90;;;;;;4916461;29;20478;-85
2023/10/27 05:20:17;;;;;;;2.03;1.80;;;17.70;99.90;;;;;;4916496;29;20041;-86
2023/10/27 05:22:43;;;;;;;1.63;1.52;;;17.70;99.90;;;;;;4916415;29;20030;-84
2023/10/27 05:25:09;;;;;;;1.80;1.70;;;17.70;99.90;;;;;;4915944;29;20119;-83
2023/10/27 05:27:35;;;;;;;2.20;1.65;;;17.70;99.90;;;;;;4913437;29;20585;-85
2023/10/27 05:30:01;;;;;;;3.72;1.77;;;17.70;99.90;;;;;;4916097;29;20036;-84
2023/10/27 05:32:27;;;;;;;3.38;2.03;;;17.70;99.90;;;;;;4910249;29;20032;-84
2023/10/27 05:34:53;;;;;;;2.40;1.98;;;17.70;99.90;;;;;;4916642;29;20062;-83
2023/10/27 05:37:22;;;;;;;1.83;1.73;;;17.70;99.90;;;;;;4916263;29;20060;-85
2023/10/27 05:39:48;;;;;;;2.22;1.88;;;17.70;99.90;;;;;;4919359;29;20102;-87
2023/10/27 05:42:14;;;;;;;2.70;2.05;;;17.70;99.90;;;;;;4916087;29;20461;-83
2023/10/27 05:44:41;;;;;;;2.75;2.15;;;17.70;99.90;;;;;;4908469;29;20117;-83
2023/10/27 05:47:07;;;;;;;2.55;2.00;;;17.60;99.90;;;;;;4914865;29;20028;-83
2023/10/27 05:49:33;;;;;;;2.42;2.20;;;17.60;99.90;;;;;;4915884;29;20064;-83
2023/10/27 05:52:02;;;;;;;2.70;2.20;;;17.60;99.90;;;;;;4912974;29;20024;-82
2023/10/27 05:54:29;;;;;;;3.03;1.95;;;17.60;99.90;;;;;;4922312;29;20032;-83
2023/10/27 05:56:55;;;;;;;4.15;2.13;;;17.60;99.90;;;;;;4920596;29;20039;-83
2023/10/27 05:59:21;;;;;;;3.47;2.03;;;17.70;99.90;;;;;;4920001;29;20040;-83
2023/10/27 06:01:48;;;;;;;3.30;2.17;;;17.70;99.90;;;;;;4917725;29;20036;-83
2023/10/27 06:04:15;;;;;;;5.43;1.83;;;17.70;99.90;;;;;;4902272;29;20167;-82
2023/10/27 06:06:40;;;;;;;4.13;2.53;;;17.80;99.90;;;;;;4907506;29;20036;-83
2023/10/27 06:09:06;;;;;;;3.88;2.83;;;17.80;99.90;;;;;;4926190;29;20028;-83
2023/10/27 06:11:32;;;;;;;3.17;2.33;;;17.80;99.90;;;;;;4922645;29;20016;-82
2023/10/27 06:13:58;;;;;;;6.32;2.85;;;17.80;99.90;;;;;;4920706;29;20038;-83
2023/10/27 06:16:24;;;;;;;6.97;3.03;;;17.80;99.90;;;;;;4904522;29;20135;-83
2023/10/27 06:18:52;;;;;;;4.88;2.92;;;17.80;99.90;;;;;;4920467;29;20456;-83
2023/10/27 06:21:18;;;;;;;4.70;2.58;;;17.80;99.90;;;;;;4923425;29;20027;-83
2023/10/27 06:23:44;;;;;;;3.65;2.58;;;17.80;99.90;;;;;;4918859;29;20036;-82
2023/10/27 06:26:10;;;;;;;3.00;2.35;;;17.80;99.90;;;;;;4922259;29;20020;-81
2023/10/27 06:28:36;;;;;;;5.28;2.63;;;17.80;99.90;;;;;;4907807;29;20024;-83
2023/10/27 06:31:03;;;;;;;3.83;2.92;;;17.70;99.90;;;;;;4915858;29;20032;-82
2023/10/27 06:33:32;;;;;;;3.22;2.90;;;17.70;99.90;;;;;;4917794;29;20028;-83
2023/10/27 06:35:59;;;;;;;3.72;3.35;;;17.70;99.90;;;;;;4918561;29;20504;-82
2023/10/27 06:38:25;;;;;;;4.00;3.63;;;17.70;99.90;;;;;;4913965;29;20364;-82
2023/10/27 06:40:51;;;;;;;5.53;4.18;;;17.70;99.90;;;;;;4913750;29;20040;-81
2023/10/27 06:43:16;;;;;;;4.97;4.47;;;17.70;99.90;;;;;;4915739;29;20099;-81
2023/10/27 06:45:42;;;;;;;5.60;4.85;;;17.70;99.90;;;;;;4918179;29;20038;-82
2023/10/27 06:48:08;;;;;;;7.60;5.03;;;17.70;99.90;;;;;;4906685;29;20051;-85
2023/10/27 06:50:33;;;;;;;4.95;4.30;;;17.70;99.90;;;;;;4923228;29;20529;-86
2023/10/27 06:52:59;;;;;;;7.38;5.00;;;17.70;99.90;;;;;;4918924;29;20039;-88
2023/10/27 06:55:25;;;;;;;5.68;5.00;;;17.70;99.90;;;;;;4911332;29;20523;-87
2023/10/27 06:57:50;;;;;;;6.72;5.32;;;17.70;99.90;;;;;;4914100;29;20028;-87
2023/10/27 07:00:16;;;;;;;7.15;5.10;;;17.70;99.90;;;;;;4921933;29;20036;-87
2023/10/27 07:02:42;;;;;;;5.85;5.28;;;17.70;99.90;;;;;;4919652;29;20076;-80
2023/10/27 07:05:11;;;;;;;4.47;3.97;;;17.70;99.90;;;;;;4901309;29;20493;-79
2023/10/27 07:07:36;;;;;;;4.93;3.55;;;17.70;99.90;;;;;;4902292;29;20036;-82
2023/10/27 07:10:04;;;;;;;3.33;3.03;;;17.70;99.90;;;;;;4919730;29;20424;-80
2023/10/27 07:12:30;;;;;;;3.65;3.05;;;17.70;99.90;;;;;;4912762;29;20017;-78
2023/10/27 07:14:55;;;;;;;3.42;2.70;;;17.70;99.90;;;;;;4914500;29;20040;-81
2023/10/27 07:17:22;;;;;;;2.50;2.30;;;17.60;99.90;;;;;;4930942;29;20044;-80
2023/10/27 07:19:48;;;;;;;2.03;1.88;;;17.60;99.90;;;;;;4919208;29;20032;-80
2023/10/27 07:22:16;;;;;;;2.85;2.30;;;17.60;99.90;;;;;;4912120;29;20094;-80
2023/10/27 07:24:41;;;;;;;2.30;2.03;;;17.60;99.90;;;;;;4917111;29;20442;-86
2023/10/27 07:27:07;;;;;;;2.10;1.90;;;17.60;99.90;;;;;;4918753;29;20038;-87
2023/10/27 07:29:33;;;;;;;2.38;1.92;;;17.70;99.90;;;;;;4922702;29;20469;-87
2023/10/27 07:31:59;;;;;;;2.17;1.90;;;17.70;99.90;;;;;;4919245;29;20032;-89
2023/10/27 07:34:24;;;;;;;3.10;2.08;;;17.80;99.90;;;;;;4901082;29;20047;-86
2023/10/27 07:36:50;;;;;;;2.88;2.03;;;17.80;99.90;;;;;;4906750;29;20068;-88
2023/10/27 07:39:17;;;;;;;4.95;2.20;;;17.80;99.90;;;;;;4911340;29;20058;-89
2023/10/27 07:41:43;;;;;;;3.97;2.15;;;17.80;99.90;;;;;;4915211;29;20052;-88
2023/10/27 07:44:08;;;;;;;2.72;1.60;;;17.80;99.90;;;;;;4913402;29;20040;-89
2023/10/27 07:46:34;;;;;;;2.38;1.73;;;17.80;99.90;;;;;;4911101;29;20055;-89
2023/10/27 07:49:00;;;;;;;2.83;2.00;;;17.80;99.90;;;;;;4918161;29;20040;-89
2023/10/27 07:51:26;;;;;;;2.25;1.50;;;17.90;99.90;;;;;;4914937;29;20425;-87
2023/10/27 07:53:52;;;;;;;1.67;1.20;;;17.90;99.90;;;;;;4917953;29;20059;-87
2023/10/27 07:56:18;;;;;;;4.93;2.50;;;17.90;99.90;;;;;;4918039;29;20028;-88
2023/10/27 07:58:44;;;;;;;2.90;1.25;;;17.90;99.90;;;;;;4920511;29;20055;-88
2023/10/27 08:01:10;;;;;;;4.38;2.58;;;17.90;99.90;;;;;;4923409;29;20079;-88
2023/10/27 08:03:38;;;;;;;2.55;1.98;;;17.90;99.90;;;;;;4921381;29;20100;-85
2023/10/27 08:06:10;;;;;;;4.30;1.95;;;17.90;99.90;;;;;;4918033;29;20449;-88
2023/10/27 08:08:38;;;;;;;3.10;2.00;;;17.90;99.90;;;;;;4915804;29;20024;-88
2023/10/27 08:11:05;;;;;;;6.82;2.70;;;18.00;99.90;;;;;;4917372;29;20066;-87
2023/10/27 08:13:32;;;;;;;3.90;2.67;;;18.00;99.90;;;;;;4917635;29;20138;-86
2023/10/27 08:16:02;;;;;;;3.25;2.20;;;18.00;99.90;;;;;;4905281;29;20529;-87
2023/10/27 08:18:27;;;;;;;;;;;18.00;99.90;;;;;;4915319;29;20042;-85
2023/10/27 08:20:55;;;;;;;3.10;2.40;;;18.00;99.90;;;;;;4920792;29;20005;-85
2023/10/27 08:23:21;;;;;;;2.80;2.00;;;18.00;99.90;;;;;;4919314;29;20044;-85
2023/10/27 08:25:51;;;;;;;2.95;1.80;;;18.10;99.90;;;;;;4917120;29;20137;-85
2023/10/27 08:28:17;;;;;;;2.17;1.92;;;18.10;99.90;;;;;;4915977;29;20024;-85
2023/10/27 08:30:43;;;;;;;3.55;1.80;;;18.10;99.90;;;;;;4914553;29;20044;-85
2023/10/27 08:33:09;;;;;;;4.68;1.88;;;18.20;99.90;;;;;;4905103;29;20028;-82
2023/10/27 08:35:35;;;;;;;2.25;2.05;;;18.20;99.90;;;;;;4915236;29;20026;-82
2023/10/27 08:38:01;;;;;;;5.68;2.45;;;18.30;99.90;;;;;;4905893;29;20065;-85
2023/10/27 08:40:27;;;;;;;3.50;2.03;;;18.40;99.90;;;;;;4910368;29;20140;-84
2023/10/27 08:42:55;;;;;;;2.55;2.15;;;18.50;99.90;;;;;;4914645;29;20027;-81
2023/10/27 08:45:31;;;;;;;3.50;2.40;;;18.80;99.90;;;;;;4900843;29;20301;-80
2023/10/27 08:48:00;;;;;;;3.70;3.00;;;19.00;99.90;;;;;;4910667;29;20039;-80
2023/10/27 08:50:26;;;;;;;5.25;2.72;;;19.30;99.90;;;;;;4893543;29;20640;-84
2023/10/27 08:52:52;;;;;;;2.53;2.33;;;19.40;99.90;;;;;;4908614;29;20035;-86
2023/10/27 08:55:20;;;;;;;3.90;3.53;;;19.60;99.90;;;;;;4916187;29;20036;-85
2023/10/27 08:57:46;;;;;;;3.45;2.67;;;19.80;99.60;;;;;;4914436;29;20081;-85
2023/10/27 09:00:12;;;;;;;2.83;2.13;;;19.90;99.30;;;;;;4916919;29;20070;-84
2023/10/27 09:02:38;;;;;;;2.85;2.33;;;20.10;99.10;;;;;;4923220;29;20560;-84
2023/10/27 09:05:06;;;;;;;2.80;2.30;;;20.20;99.10;;;;;;4916433;29;20039;-79
2023/10/27 09:07:33;;;;;;;7.20;3.03;;;20.40;98.20;;;;;;4890632;29;20035;-84
2023/10/27 09:10:00;;;;;;;2.58;2.33;;;20.50;98.10;;;;;;4916500;29;20084;-83
2023/10/27 09:12:29;;;;;;;3.33;2.67;;;20.70;97.90;;;;;;4919787;29;20504;-80
2023/10/27 09:15:05;;;;;;;3.00;2.60;;;20.80;97.70;;;;;;4918378;29;20036;-78
2023/10/27 09:17:48;;;;;;;2.83;2.22;;;21.00;98.00;;;;;;4919335;29;20382;-80
2023/10/27 09:20:14;;;;;;;4.05;3.17;;;21.20;97.80;;;;;;4906182;29;20536;-79
2023/10/27 09:22:59;;;;;;;6.03;2.95;;;21.40;97.00;;;;;;4912198;29;20119;-79
2023/10/27 09:25:29;;;;;;;5.40;3.50;;;21.50;96.70;;;;;;4912723;29;20043;-80
2023/10/27 09:27:55;;;;;;;;;;;21.60;96.30;;;;;;4910501;29;20468;-78
2023/10/27 09:30:32;;;;;;;3.97;3.55;;;21.70;95.90;;;;;;4919934;29;19911;-79
2023/10/27 09:33:17;;;;;;;2.53;2.20;;;21.70;95.80;;;;;;4919925;29;20056;-79
2023/10/27 09:35:44;;;;;;;4.10;3.10;;;21.80;95.60;;;;;;4919581;29;20028;-79
2023/10/27 09:38:12;;;;;;;3.10;2.80;;;21.90;95.70;;;;;;4919924;29;20075;-78
2023/10/27 09:40:38;;;;;;;4.28;3.00;;;22.00;95.70;;;;;;4920636;29;20025;-77
2023/10/27 09:43:08;;;;;;;4.60;4.07;;;22.10;95.70;;;;;;4920527;29;20128;-79
2023/10/27 09:45:37;;;;;;;3.28;2.80;;;22.30;94.70;;;;;;4920452;29;20032;-79
2023/10/27 09:48:05;;;;;;;4.70;3.72;;;22.40;95.10;;;;;;4919627;29;20039;-77
2023/10/27 09:50:32;;;;;;;6.35;3.60;;;22.40;94.30;;;;;;4919788;29;20079;-77
2023/10/27 09:52:59;;;;;;;5.25;3.90;;;22.50;94.60;;;;;;4918934;29;20601;-78
2023/10/27 09:55:27;;;;;;;6.85;3.25;;;22.50;94.10;;;;;;4920570;29;20024;-78
2023/10/27 09:57:53;;;;;;;8.40;6.30;;;22.60;94.40;;;;;;4920041;29;20039;-78
2023/10/27 10:00:31;;;;;;;4.40;3.60;;;22.60;93.30;;;;;;4920110;29;20040;-78
2023/10/27 10:02:58;;;;;;;4.80;4.00;;;22.70;93.90;;;;;;4919747;29;20044;-77
2023/10/27 10:05:24;;;;;;;4.75;3.83;;;22.80;94.00;;;;;;4900580;29;20024;-78
2023/10/27 10:07:56;;;;;;;5.90;4.53;;;22.90;93.70;;;;;;4900951;29;20043;-78
2023/10/27 10:10:30;;;;;;;5.55;4.07;;;23.00;92.90;;;;;;4906794;29;20497;-79
2023/10/27 10:13:04;;;;;;;6.57;4.40;;;23.10;93.40;;;;;;4919468;29;20020;-78
2023/10/27 10:15:38;;;;;;;5.85;4.95;;;23.20;93.50;;;;;;4920128;29;20407;-78
2023/10/27 10:18:08;;;;;;;4.22;3.47;;;23.40;92.60;;;;;;4919357;29;20509;-79
2023/10/27 10:20:49;;;;;;;8.68;5.50;;;23.50;92.90;;;;;;4912543;29;20042;-78
2023/10/27 10:23:16;;;;;;;7.03;4.43;;;23.60;92.10;;;;;;4910033;29;20425;-78
2023/10/27 10:25:55;;;;;;;6.47;4.15;;;23.70;92.00;;;;;;4919676;29;20042;-80
2023/10/27 10:28:36;;;;;;;6.57;4.35;;;23.80;91.90;;;;;;4919517;29;20326;-78
2023/10/27 10:31:10;;;;;;;5.03;3.80;;;24.00;91.50;;;;;;4918580;29;20020;-79
2023/10/27 10:33:37;;;;;;;4.88;3.67;;;24.10;91.80;;;;;;4915698;29;20043;-79
2023/10/27 10:36:18;;;;;;;4.82;3.58;;;24.30;91.80;;;;;;4914949;29;20033;-78
2023/10/27 10:38:50;;;;;;;5.25;3.45;;;24.40;91.10;;;;;;4907923;29;20361;-83
2023/10/27 10:41:18;;;;;;;5.53;4.57;;;24.40;91.10;;;;;;4913750;29;20047;-81
2023/10/27 10:43:44;;;;;;;6.15;4.88;;;24.50;90.30;;;;;;4913663;29;20545;-82
2023/10/27 10:46:12;;;;;;;5.30;3.67;;;24.60;89.80;;;;;;4927936;29;20027;-81
2023/10/27 10:48:41;;;;;;;7.03;4.95;;;24.60;90.00;;;;;;4935217;29;20413;-82
2023/10/27 10:51:12;;;;;;;5.90;4.15;;;24.60;88.80;;;;;;4918707;29;20100;-80
2023/10/27 10:53:38;;;;;;;4.85;3.63;;;24.60;89.00;;;;;;4914175;29;20028;-81
2023/10/27 10:56:04;;;;;;;8.02;4.43;;;24.60;89.90;;;;;;4914026;29;20362;-80
2023/10/27 10:58:36;;;;;;;5.80;3.80;;;24.80;89.00;;;;;;4921652;29;20028;-81
2023/10/27 11:01:03;;;;;;;6.05;4.63;;;24.80;88.90;;;;;;4918491;29;20032;-81
2023/10/27 11:03:34;;;;;;;5.15;3.92;;;24.90;89.40;;;;;;4918011;29;20453;-81
2023/10/27 11:06:02;;;;;;;4.50;3.60;;;25.00;88.30;;;;;;4918988;29;20024;-81
2023/10/27 11:08:31;;;;;;;5.72;3.78;;;25.10;87.40;;;;;;4917712;29;20028;-81
2023/10/27 11:11:02;;;;;;;3.90;3.17;;;25.30;87.70;;;;;;4920398;29;20036;-81
2023/10/27 11:13:29;;;;;;;4.57;3.15;;;25.40;88.80;;;;;;4918315;29;20047;-80
2023/10/27 11:15:55;;;;;;;3.67;2.72;;;25.50;88.50;;;;;;4918040;29;20512;-80
2023/10/27 11:18:21;;;;;;;4.68;3.40;;;25.80;87.70;;;;;;4917808;29;20039;-80
2023/10/27 11:20:49;;;;;;;4.78;3.53;;;26.00;84.60;;;;;;4919632;29;20032;-84
2023/10/27 11:23:16;;;;;;;5.88;3.08;;;26.10;85.40;;;;;;4919770;29;20020;-83
2023/10/27 11:25:43;;;;;;;4.28;3.35;;;26.60;86.30;;;;;;4919149;29;20036;-85
2023/10/27 11:28:22;;;;;;;5.20;3.50;;;27.70;83.90;;;;;;4922279;29;20024;-85
2023/10/27 11:30:57;;;;;;;4.80;3.17;;;29.00;81.70;;;;;;4917876;29;20377;-81
2023/10/27 11:33:23;;;;;;;2.60;2.20;;;30.30;77.40;;;;;;4917707;29;20088;-82
2023/10/27 11:35:49;;;;;;;2.72;2.30;;;31.20;76.00;;;;;;4918383;29;20036;-82
2023/10/27 11:38:14;;;;;;;4.30;3.13;;;31.90;73.50;;;;;;4918411;29;20079;-81
2023/10/27 11:40:40;;;;;;;5.88;2.67;;;32.70;68.90;;;;;;4918219;29;20473;-82
2023/10/27 11:43:06;;;;;;;4.30;3.00;;;33.20;68.50;;;;;;4900677;29;20385;-82
2023/10/27 11:45:31;;;;;;;4.70;2.60;;;33.60;67.00;;;;;;4918040;29;20039;-82
2023/10/27 11:47:57;;;;;;;4.38;3.22;;;34.00;65.30;;;;;;4917690;29;20366;-82
2023/10/27 11:50:24;;;;;;;3.35;2.63;;;34.30;64.60;;;;;;4917349;29;20045;-81
2023/10/27 11:52:50;;;;;;;4.60;4.20;;;34.30;63.30;;;;;;4917720;29;20413;-82
2023/10/27 11:55:15;;;;;;;3.20;2.63;;;34.30;60.50;;;;;;4917907;29;20469;-83
2023/10/27 11:57:41;;;;;;;4.20;3.08;;;34.30;62.80;;;;;;4917630;29;20433;-83
2023/10/27 12:00:10;;;;;;;3.45;2.90;;;34.20;61.50;;;;;;4916539;29;20111;-83
2023/10/27 12:02:36;;;;;;;5.10;3.13;;;34.20;61.70;;;;;;4917427;29;20038;-81
2023/10/27 12:05:02;;;;;;;4.07;3.35;;;34.00;61.80;;;;;;4917785;29;20061;-82
2023/10/27 12:07:28;;;;;;;3.80;2.88;;;34.00;61.60;;;;;;4917635;29;20127;-83
2023/10/27 12:09:53;;;;;;;5.35;3.25;;;33.90;60.80;;;;;;4917473;29;20410;-82
2023/10/27 12:12:28;;;;;;;4.43;2.83;;;33.80;60.80;;;;;;4917808;29;20032;-83
2023/10/27 12:14:54;;;;;;;3.15;2.10;;;33.60;59.90;;;;;;4890413;29;20048;-81
2023/10/27 12:17:20;;;;;;;2.88;2.28;;;33.40;61.00;;;;;;4915526;29;20040;-81
2023/10/27 12:19:46;;;;;;;2.78;2.45;;;33.20;61.50;;;;;;4925199;29;20474;-83
2023/10/27 12:22:12;;;;;;;2.67;2.35;;;33.00;61.80;;;;;;4916747;29;20067;-82
2023/10/27 12:24:37;;;;;;;3.17;2.05;;;32.70;62.10;;;;;;4911003;29;20028;-82
2023/10/27 12:27:04;;;;;;;5.57;1.77;;;32.60;62.80;;;;;;4915947;29;20164;-81
2023/10/27 12:29:30;;;;;;;2.45;1.80;;;32.70;62.90;;;;;;4917016;29;20028;-81
2023/10/27 12:31:56;;;;;;;3.33;1.80;;;32.80;63.10;;;;;;4917388;29;20113;-82
2023/10/27 12:34:21;;;;;;;3.28;2.55;;;32.80;62.50;;;;;;4916791;29;20047;-81
2023/10/27 12:36:47;;;;;;;2.33;1.70;;;32.70;61.40;;;;;;4916663;29;20047;-80
2023/10/27 12:39:13;;;;;;;6.10;2.08;;;32.80;62.40;;;;;;4916790;29;20072;-82
2023/10/27 12:41:38;;;;;;;1.70;1.60;;;32.80;62.00;;;;;;4917790;29;20044;-82
2023/10/27 12:44:04;;;;;;;3.58;1.58;;;32.90;62.20;;;;;;4917692;29;20070;-82
2023/10/27 12:46:30;;;;;;;2.35;1.73;;;33.00;61.60;;;;;;4917475;29;20030;-82